sensor_id;sensor_type;location;lat;lon;timestamp;pressure;altitude;pressure_sealevel;temperature;humidity
48606;BME280;8482;54.396;18.590;2023-05-11T06:44:15;102098.72;;;13.60;38.94
48606;BME280;8482;54.396;18.590;2023-05-11T06:46:41;102103.59;;;13.67;38.52
48606;BME280;8482;54.396;18.590;2023-05-11T06:49:07;102098.91;;;13.70;38.67
48606;BME280;8482;54.396;18.590;2023-05-11T06:51:33;102092.41;;;13.74;38.13
48606;BME280;8482;54.396;18.590;2023-05-11T06:53:59;102098.78;;;13.85;38.40
48606;BME280;8482;54.396;18.590;2023-05-11T06:56:25;102095.81;;;13.89;37.92
48606;BME280;8482;54.396;18.590;2023-05-11T06:58:52;102102.59;;;13.93;38.00
48606;BME280;8482;54.396;18.590;2023-05-11T07:01:18;102104.59;;;14.03;38.24
48606;BME280;8482;54.396;18.590;2023-05-11T07:03:43;102108.56;;;14.10;38.47
48606;BME280;8482;54.396;18.590;2023-05-11T07:06:09;102087.00;;;14.13;38.06
48606;BME280;8482;54.396;18.590;2023-05-11T07:08:35;102100.50;;;14.23;37.77
48606;BME280;8482;54.396;18.590;2023-05-11T07:11:01;102093.13;;;14.27;38.01
48606;BME280;8482;54.396;18.590;2023-05-11T07:13:27;102109.44;;;14.35;37.40
48606;BME280;8482;54.396;18.590;2023-05-11T07:15:52;102097.44;;;14.40;37.25
48606;BME280;8482;54.396;18.590;2023-05-11T07:18:19;102103.41;;;14.44;37.23
48606;BME280;8482;54.396;18.590;2023-05-11T07:20:44;102105.50;;;14.52;37.62
48606;BME280;8482;54.396;18.590;2023-05-11T07:23:15;102098.75;;;14.59;37.52
48606;BME280;8482;54.396;18.590;2023-05-11T07:25:42;102104.50;;;14.66;37.41
48606;BME280;8482;54.396;18.590;2023-05-11T07:28:07;102107.59;;;14.73;37.41
48606;BME280;8482;54.396;18.590;2023-05-11T07:30:33;102100.19;;;14.76;37.39
48606;BME280;8482;54.396;18.590;2023-05-11T07:32:59;102106.66;;;14.85;37.19
48606;BME280;8482;54.396;18.590;2023-05-11T07:35:25;102099.13;;;14.90;37.04
48606;BME280;8482;54.396;18.590;2023-05-11T07:37:51;102102.81;;;15.00;36.99
48606;BME280;8482;54.396;18.590;2023-05-11T07:40:17;102110.34;;;15.07;36.86
48606;BME280;8482;54.396;18.590;2023-05-11T07:42:43;102101.97;;;15.11;36.66
48606;BME280;8482;54.396;18.590;2023-05-11T07:45:09;102107.59;;;15.20;36.74
48606;BME280;8482;54.396;18.590;2023-05-11T07:47:35;102094.63;;;15.26;36.53
48606;BME280;8482;54.396;18.590;2023-05-11T07:50:01;102103.84;;;15.33;36.86
48606;BME280;8482;54.396;18.590;2023-05-11T07:52:26;102093.75;;;15.37;36.86
48606;BME280;8482;54.396;18.590;2023-05-11T07:54:52;102097.66;;;15.44;36.64
48606;BME280;8482;54.396;18.590;2023-05-11T07:57:18;102090.75;;;15.53;36.77
48606;BME280;8482;54.396;18.590;2023-05-11T07:59:44;102092.69;;;15.62;36.25
48606;BME280;8482;54.396;18.590;2023-05-11T08:02:10;102084.44;;;15.66;36.03
48606;BME280;8482;54.396;18.590;2023-05-11T08:04:36;102095.22;;;15.75;36.29
48606;BME280;8482;54.396;18.590;2023-05-11T08:07:03;102106.19;;;15.84;35.39
48606;BME280;8482;54.396;18.590;2023-05-11T08:09:29;102080.78;;;15.89;34.40
48606;BME280;8482;54.396;18.590;2023-05-11T08:11:56;102100.47;;;16.00;35.07
48606;BME280;8482;54.396;18.590;2023-05-11T08:14:23;102075.91;;;16.06;33.82
48606;BME280;8482;54.396;18.590;2023-05-11T08:16:49;102076.94;;;16.15;33.78
48606;BME280;8482;54.396;18.590;2023-05-11T08:19:15;102084.50;;;16.21;33.80
48606;BME280;8482;54.396;18.590;2023-05-11T08:21:41;102076.66;;;16.29;33.79
48606;BME280;8482;54.396;18.590;2023-05-11T08:24:08;102090.75;;;16.43;33.56
48606;BME280;8482;54.396;18.590;2023-05-11T08:26:35;102092.94;;;16.49;33.11
48606;BME280;8482;54.396;18.590;2023-05-11T08:29:00;102076.22;;;16.57;33.16
48606;BME280;8482;54.396;18.590;2023-05-11T08:31:26;102086.03;;;16.67;32.94
48606;BME280;8482;54.396;18.590;2023-05-11T08:33:52;102085.66;;;16.72;32.98
48606;BME280;8482;54.396;18.590;2023-05-11T08:36:18;102088.53;;;16.80;32.72
48606;BME280;8482;54.396;18.590;2023-05-11T08:38:44;102091.28;;;16.90;30.69
48606;BME280;8482;54.396;18.590;2023-05-11T08:41:13;102080.44;;;16.92;30.40
48606;BME280;8482;54.396;18.590;2023-05-11T08:43:39;102090.38;;;17.01;30.38
48606;BME280;8482;54.396;18.590;2023-05-11T08:46:07;102082.66;;;17.08;30.20
48606;BME280;8482;54.396;18.590;2023-05-11T08:48:35;102078.75;;;17.12;29.94
48606;BME280;8482;54.396;18.590;2023-05-11T08:51:02;102091.03;;;17.14;29.36
48606;BME280;8482;54.396;18.590;2023-05-11T08:53:28;102076.53;;;17.17;28.85
48606;BME280;8482;54.396;18.590;2023-05-11T08:55:58;102072.59;;;17.21;28.61
48606;BME280;8482;54.396;18.590;2023-05-11T08:58:26;102069.53;;;17.26;28.84
48606;BME280;8482;54.396;18.590;2023-05-11T09:00:53;102092.16;;;17.33;28.86
48606;BME280;8482;54.396;18.590;2023-05-11T09:03:21;102073.09;;;17.36;28.42
48606;BME280;8482;54.396;18.590;2023-05-11T09:05:48;102084.72;;;17.46;27.92
48606;BME280;8482;54.396;18.590;2023-05-11T09:08:17;102088.72;;;17.52;27.54
48606;BME280;8482;54.396;18.590;2023-05-11T09:10:44;102076.72;;;17.56;26.91
48606;BME280;8482;54.396;18.590;2023-05-11T09:13:11;102073.63;;;17.61;27.22
48606;BME280;8482;54.396;18.590;2023-05-11T09:15:37;102078.44;;;17.67;27.30
48606;BME280;8482;54.396;18.590;2023-05-11T09:18:03;102070.13;;;17.70;27.37
48606;BME280;8482;54.396;18.590;2023-05-11T09:20:31;102070.31;;;17.79;27.36
48606;BME280;8482;54.396;18.590;2023-05-11T09:22:57;102066.09;;;17.86;27.49
48606;BME280;8482;54.396;18.590;2023-05-11T09:25:25;102073.06;;;17.98;27.52
48606;BME280;8482;54.396;18.590;2023-05-11T09:27:51;102070.41;;;18.08;27.74
48606;BME280;8482;54.396;18.590;2023-05-11T09:30:22;102066.03;;;18.17;27.51
48606;BME280;8482;54.396;18.590;2023-05-11T09:32:58;102066.19;;;18.25;27.27
48606;BME280;8482;54.396;18.590;2023-05-11T09:35:30;102070.88;;;18.33;27.05
48606;BME280;8482;54.396;18.590;2023-05-11T09:37:57;102065.78;;;18.40;26.89
48606;BME280;8482;54.396;18.590;2023-05-11T09:40:25;102061.81;;;18.44;27.16
48606;BME280;8482;54.396;18.590;2023-05-11T09:42:51;102062.66;;;18.54;26.50
48606;BME280;8482;54.396;18.590;2023-05-11T09:45:41;102059.56;;;18.59;26.05
48606;BME280;8482;54.396;18.590;2023-05-11T09:50:48;102060.25;;;18.71;26.07
48606;BME280;8482;54.396;18.590;2023-05-11T09:53:14;102070.69;;;18.74;25.48
48606;BME280;8482;54.396;18.590;2023-05-11T09:55:54;102054.84;;;18.80;26.13
48606;BME280;8482;54.396;18.590;2023-05-11T09:58:20;102068.88;;;18.84;25.99
48606;BME280;8482;54.396;18.590;2023-05-11T10:00:53;102057.81;;;18.87;25.95
48606;BME280;8482;54.396;18.590;2023-05-11T10:03:19;102051.88;;;18.93;26.01
48606;BME280;8482;54.396;18.590;2023-05-11T10:05:59;102053.00;;;19.01;26.15
48606;BME280;8482;54.396;18.590;2023-05-11T10:08:30;102034.75;;;19.04;26.11
48606;BME280;8482;54.396;18.590;2023-05-11T10:11:01;102041.94;;;19.13;26.08
48606;BME280;8482;54.396;18.590;2023-05-11T10:13:29;102048.13;;;19.24;25.92
48606;BME280;8482;54.396;18.590;2023-05-11T10:15:58;102044.16;;;19.28;25.83
48606;BME280;8482;54.396;18.590;2023-05-11T10:18:28;102043.88;;;19.31;25.61
48606;BME280;8482;54.396;18.590;2023-05-11T10:20:56;102044.13;;;19.38;25.71
48606;BME280;8482;54.396;18.590;2023-05-11T10:23:22;102051.59;;;19.44;25.78
48606;BME280;8482;54.396;18.590;2023-05-11T10:25:53;102045.63;;;19.50;25.61
48606;BME280;8482;54.396;18.590;2023-05-11T10:28:20;102033.97;;;19.59;25.28
48606;BME280;8482;54.396;18.590;2023-05-11T10:30:46;102041.44;;;19.66;25.05
48606;BME280;8482;54.396;18.590;2023-05-11T10:33:13;102028.66;;;19.68;25.05
48606;BME280;8482;54.396;18.590;2023-05-11T10:35:39;102043.94;;;19.77;24.98
48606;BME280;8482;54.396;18.590;2023-05-11T10:38:07;102044.03;;;19.85;23.94
48606;BME280;8482;54.396;18.590;2023-05-11T10:40:41;102042.16;;;19.86;24.11
48606;BME280;8482;54.396;18.590;2023-05-11T10:43:41;102027.59;;;19.88;24.43
48606;BME280;8482;54.396;18.590;2023-05-11T10:58:16;102029.47;;;20.24;24.08
48606;BME280;8482;54.396;18.590;2023-05-11T11:04:01;102029.53;;;20.32;23.67
48606;BME280;8482;54.396;18.590;2023-05-11T11:06:31;102028.78;;;20.40;23.52
48606;BME280;8482;54.396;18.590;2023-05-11T11:09:07;102013.66;;;20.47;23.88
48606;BME280;8482;54.396;18.590;2023-05-11T11:11:38;102017.97;;;20.58;24.10
48606;BME280;8482;54.396;18.590;2023-05-11T11:14:06;102006.09;;;20.69;24.33
48606;BME280;8482;54.396;18.590;2023-05-11T11:16:37;102009.69;;;20.78;24.47
48606;BME280;8482;54.396;18.590;2023-05-11T11:21:59;102019.06;;;20.92;23.61
48606;BME280;8482;54.396;18.590;2023-05-11T11:27:07;102003.69;;;21.10;24.27
48606;BME280;8482;54.396;18.590;2023-05-11T11:29:36;102017.03;;;21.20;24.24
48606;BME280;8482;54.396;18.590;2023-05-11T11:34:47;102010.41;;;21.41;23.55
48606;BME280;8482;54.396;18.590;2023-05-11T11:37:14;102014.97;;;21.49;23.88
48606;BME280;8482;54.396;18.590;2023-05-11T11:42:12;102012.19;;;21.67;23.28
48606;BME280;8482;54.396;18.590;2023-05-11T11:44:40;102022.19;;;21.74;23.08
48606;BME280;8482;54.396;18.590;2023-05-11T11:47:20;102015.78;;;21.84;23.18
48606;BME280;8482;54.396;18.590;2023-05-11T11:49:52;102018.16;;;21.95;23.25
48606;BME280;8482;54.396;18.590;2023-05-11T11:55:02;102020.53;;;22.07;22.98
48606;BME280;8482;54.396;18.590;2023-05-11T11:59:59;102012.66;;;22.22;22.88
48606;BME280;8482;54.396;18.590;2023-05-11T12:02:26;102017.72;;;22.33;23.10
48606;BME280;8482;54.396;18.590;2023-05-11T12:05:08;102012.81;;;22.45;23.15
48606;BME280;8482;54.396;18.590;2023-05-11T12:07:41;102015.19;;;22.56;23.15
48606;BME280;8482;54.396;18.590;2023-05-11T12:10:08;102017.03;;;22.72;22.42
48606;BME280;8482;54.396;18.590;2023-05-11T12:12:37;102010.25;;;22.76;22.49
48606;BME280;8482;54.396;18.590;2023-05-11T12:15:06;102015.34;;;22.88;22.84
48606;BME280;8482;54.396;18.590;2023-05-11T12:17:37;102018.69;;;22.98;22.38
48606;BME280;8482;54.396;18.590;2023-05-11T12:20:17;102013.41;;;23.05;21.89
48606;BME280;8482;54.396;18.590;2023-05-11T12:22:44;102016.78;;;23.15;21.54
48606;BME280;8482;54.396;18.590;2023-05-11T12:25:12;102015.56;;;23.18;21.72
48606;BME280;8482;54.396;18.590;2023-05-11T12:27:53;102019.81;;;23.29;21.92
48606;BME280;8482;54.396;18.590;2023-05-11T12:30:25;102014.00;;;23.40;21.86
48606;BME280;8482;54.396;18.590;2023-05-11T12:32:52;102014.13;;;23.55;22.08
48606;BME280;8482;54.396;18.590;2023-05-11T12:35:24;102019.81;;;23.68;21.95
48606;BME280;8482;54.396;18.590;2023-05-11T12:37:51;102013.66;;;23.75;21.45
48606;BME280;8482;54.396;18.590;2023-05-11T12:40:17;102019.88;;;23.83;21.05
48606;BME280;8482;54.396;18.590;2023-05-11T12:42:58;102022.53;;;23.92;21.17
48606;BME280;8482;54.396;18.590;2023-05-11T12:45:26;102023.19;;;23.94;20.94
48606;BME280;8482;54.396;18.590;2023-05-11T12:47:55;102019.13;;;23.98;20.84
48606;BME280;8482;54.396;18.590;2023-05-11T12:50:22;102022.13;;;24.03;20.72
48606;BME280;8482;54.396;18.590;2023-05-11T12:52:48;102023.28;;;24.09;21.27
48606;BME280;8482;54.396;18.590;2023-05-11T12:55:29;102010.16;;;24.21;21.06
48606;BME280;8482;54.396;18.590;2023-05-11T12:58:14;102006.72;;;24.27;20.43
48606;BME280;8482;54.396;18.590;2023-05-11T13:00:56;102012.53;;;24.39;20.68
48606;BME280;8482;54.396;18.590;2023-05-11T13:03:27;102004.16;;;24.48;20.28
48606;BME280;8482;54.396;18.590;2023-05-11T13:06:23;102009.59;;;24.63;20.41
48606;BME280;8482;54.396;18.590;2023-05-11T13:08:48;101993.47;;;24.70;20.03
48606;BME280;8482;54.396;18.590;2023-05-11T13:11:24;101995.34;;;24.85;20.19
48606;BME280;8482;54.396;18.590;2023-05-11T13:13:55;101994.72;;;24.98;20.25
48606;BME280;8482;54.396;18.590;2023-05-11T13:16:32;101994.03;;;25.10;20.06
48606;BME280;8482;54.396;18.590;2023-05-11T13:19:03;101994.22;;;25.24;18.58
48606;BME280;8482;54.396;18.590;2023-05-11T13:21:30;101986.44;;;25.21;18.98
48606;BME280;8482;54.396;18.590;2023-05-11T13:23:58;101993.28;;;25.32;18.87
48606;BME280;8482;54.396;18.590;2023-05-11T13:26:28;101969.78;;;25.39;19.16
48606;BME280;8482;54.396;18.590;2023-05-11T13:28:54;101973.44;;;25.46;19.13
48606;BME280;8482;54.396;18.590;2023-05-11T13:31:20;101983.41;;;25.61;18.88
48606;BME280;8482;54.396;18.590;2023-05-11T13:33:50;101991.25;;;25.70;18.54
48606;BME280;8482;54.396;18.590;2023-05-11T13:36:16;101986.28;;;25.74;18.24
48606;BME280;8482;54.396;18.590;2023-05-11T13:38:42;101985.44;;;25.74;18.36
48606;BME280;8482;54.396;18.590;2023-05-11T13:41:09;101975.47;;;25.81;18.90
48606;BME280;8482;54.396;18.590;2023-05-11T13:43:35;101964.75;;;25.94;18.89
48606;BME280;8482;54.396;18.590;2023-05-11T13:46:01;101967.72;;;25.99;18.87
48606;BME280;8482;54.396;18.590;2023-05-11T13:48:31;101967.22;;;26.11;19.05
48606;BME280;8482;54.396;18.590;2023-05-11T13:50:57;101977.81;;;26.27;19.11
48606;BME280;8482;54.396;18.590;2023-05-11T13:53:22;101982.31;;;26.42;18.81
48606;BME280;8482;54.396;18.590;2023-05-11T13:55:48;101967.72;;;26.50;17.94
48606;BME280;8482;54.396;18.590;2023-05-11T13:58:14;101968.59;;;26.50;17.22
48606;BME280;8482;54.396;18.590;2023-05-11T14:00:40;101982.38;;;26.49;17.55
48606;BME280;8482;54.396;18.590;2023-05-11T14:03:06;101968.31;;;26.45;17.50
48606;BME280;8482;54.396;18.590;2023-05-11T14:05:32;101976.75;;;26.50;17.36
48606;BME280;8482;54.396;18.590;2023-05-11T14:07:58;101968.97;;;26.47;17.34
48606;BME280;8482;54.396;18.590;2023-05-11T14:10:23;101976.09;;;26.48;17.52
48606;BME280;8482;54.396;18.590;2023-05-11T14:12:49;101978.88;;;26.55;17.41
48606;BME280;8482;54.396;18.590;2023-05-11T14:15:16;101967.19;;;26.61;17.55
48606;BME280;8482;54.396;18.590;2023-05-11T14:17:42;101960.94;;;26.67;17.51
48606;BME280;8482;54.396;18.590;2023-05-11T14:20:10;101962.25;;;26.71;17.49
48606;BME280;8482;54.396;18.590;2023-05-11T14:22:36;101961.28;;;26.79;17.07
48606;BME280;8482;54.396;18.590;2023-05-11T14:25:02;101956.25;;;26.83;17.36
48606;BME280;8482;54.396;18.590;2023-05-11T14:27:28;101953.16;;;26.86;17.47
48606;BME280;8482;54.396;18.590;2023-05-11T14:29:54;101960.28;;;26.93;17.09
48606;BME280;8482;54.396;18.590;2023-05-11T14:32:20;101947.31;;;26.96;17.03
48606;BME280;8482;54.396;18.590;2023-05-11T14:34:46;101962.47;;;27.05;18.14
48606;BME280;8482;54.396;18.590;2023-05-11T14:37:12;101955.16;;;27.12;17.01
48606;BME280;8482;54.396;18.590;2023-05-11T14:39:39;101954.13;;;27.20;16.80
48606;BME280;8482;54.396;18.590;2023-05-11T14:42:06;101959.38;;;27.28;17.27
48606;BME280;8482;54.396;18.590;2023-05-11T14:44:32;101962.16;;;27.42;18.18
48606;BME280;8482;54.396;18.590;2023-05-11T14:46:58;101961.41;;;27.55;17.76
48606;BME280;8482;54.396;18.590;2023-05-11T14:49:24;101965.22;;;27.67;17.72
48606;BME280;8482;54.396;18.590;2023-05-11T14:51:49;101950.97;;;27.78;17.36
48606;BME280;8482;54.396;18.590;2023-05-11T14:54:15;101956.22;;;27.87;18.19
48606;BME280;8482;54.396;18.590;2023-05-11T14:56:41;101965.44;;;27.99;16.75
48606;BME280;8482;54.396;18.590;2023-05-11T14:59:07;101964.88;;;28.10;17.23
48606;BME280;8482;54.396;18.590;2023-05-11T15:01:33;101951.66;;;28.14;17.40
48606;BME280;8482;54.396;18.590;2023-05-11T15:03:59;101963.38;;;28.28;18.87
48606;BME280;8482;54.396;18.590;2023-05-11T15:06:25;101956.06;;;28.35;16.57
48606;BME280;8482;54.396;18.590;2023-05-11T15:08:50;101955.00;;;28.43;16.94
48606;BME280;8482;54.396;18.590;2023-05-11T15:11:17;101954.75;;;28.51;17.25
48606;BME280;8482;54.396;18.590;2023-05-11T15:13:43;101968.19;;;28.59;17.70
48606;BME280;8482;54.396;18.590;2023-05-11T15:16:11;101969.22;;;28.65;19.42
48606;BME280;8482;54.396;18.590;2023-05-11T15:18:37;101967.97;;;28.68;20.34
48606;BME280;8482;54.396;18.590;2023-05-11T15:21:05;101957.47;;;28.65;20.44
48606;BME280;8482;54.396;18.590;2023-05-11T15:23:31;101959.38;;;28.57;20.75
48606;BME280;8482;54.396;18.590;2023-05-11T15:25:57;101956.66;;;28.51;20.65
48606;BME280;8482;54.396;18.590;2023-05-11T15:28:26;101963.19;;;28.36;20.76
48606;BME280;8482;54.396;18.590;2023-05-11T15:30:52;101958.78;;;28.28;21.01
48606;BME280;8482;54.396;18.590;2023-05-11T15:33:18;101961.72;;;28.20;21.30
48606;BME280;8482;54.396;18.590;2023-05-11T15:35:44;101962.16;;;28.10;21.67
48606;BME280;8482;54.396;18.590;2023-05-11T15:38:10;101960.84;;;27.93;21.98
48606;BME280;8482;54.396;18.590;2023-05-11T15:40:36;101966.28;;;27.79;21.86
48606;BME280;8482;54.396;18.590;2023-05-11T15:43:02;101965.41;;;27.59;21.74
48606;BME280;8482;54.396;18.590;2023-05-11T15:45:28;101960.06;;;27.44;21.88
48606;BME280;8482;54.396;18.590;2023-05-11T15:47:54;101961.94;;;27.36;22.20
48606;BME280;8482;54.396;18.590;2023-05-11T15:50:20;101967.38;;;27.30;22.62
48606;BME280;8482;54.396;18.590;2023-05-11T15:52:46;101957.66;;;27.14;22.79
48606;BME280;8482;54.396;18.590;2023-05-11T15:55:13;101960.13;;;27.02;23.16
48606;BME280;8482;54.396;18.590;2023-05-11T15:57:39;101958.19;;;26.96;23.95
48606;BME280;8482;54.396;18.590;2023-05-11T16:00:05;101969.88;;;26.83;24.03
48606;BME280;8482;54.396;18.590;2023-05-11T16:02:35;101963.66;;;26.67;24.21
48606;BME280;8482;54.396;18.590;2023-05-11T16:05:01;101971.31;;;26.50;24.28
48606;BME280;8482;54.396;18.590;2023-05-11T16:07:26;101970.44;;;26.21;24.66
48606;BME280;8482;54.396;18.590;2023-05-11T16:09:53;101974.88;;;26.07;25.91
48606;BME280;8482;54.396;18.590;2023-05-11T16:12:18;101977.16;;;25.82;26.10
48606;BME280;8482;54.396;18.590;2023-05-11T16:14:44;101976.50;;;25.58;26.37
48606;BME280;8482;54.396;18.590;2023-05-11T16:17:10;101971.19;;;25.35;27.18
48606;BME280;8482;54.396;18.590;2023-05-11T16:19:36;101981.66;;;25.23;26.94
48606;BME280;8482;54.396;18.590;2023-05-11T16:22:02;101972.06;;;25.05;27.39
48606;BME280;8482;54.396;18.590;2023-05-11T16:24:28;101980.28;;;24.97;27.79
48606;BME280;8482;54.396;18.590;2023-05-11T16:26:55;101974.66;;;24.84;27.90
48606;BME280;8482;54.396;18.590;2023-05-11T16:29:21;101976.16;;;24.71;28.03
48606;BME280;8482;54.396;18.590;2023-05-11T16:31:46;101972.94;;;24.53;28.12
48606;BME280;8482;54.396;18.590;2023-05-11T16:34:13;101976.47;;;24.38;28.59
48606;BME280;8482;54.396;18.590;2023-05-11T16:36:39;101975.88;;;24.28;28.68
48606;BME280;8482;54.396;18.590;2023-05-11T16:39:05;101971.91;;;24.15;28.97
48606;BME280;8482;54.396;18.590;2023-05-11T16:41:31;101975.03;;;24.04;29.43
48606;BME280;8482;54.396;18.590;2023-05-11T16:43:57;101971.22;;;23.90;29.34
48606;BME280;8482;54.396;18.590;2023-05-11T16:46:23;101977.78;;;23.72;29.93
48606;BME280;8482;54.396;18.590;2023-05-11T16:48:49;101970.66;;;23.48;30.06
48606;BME280;8482;54.396;18.590;2023-05-11T16:51:15;101972.63;;;23.15;30.52
48606;BME280;8482;54.396;18.590;2023-05-11T16:53:41;101976.09;;;22.84;31.09
48606;BME280;8482;54.396;18.590;2023-05-11T16:56:07;101965.34;;;22.50;31.55
48606;BME280;8482;54.396;18.590;2023-05-11T16:58:33;101972.41;;;22.27;32.15
48606;BME280;8482;54.396;18.590;2023-05-11T17:00:59;101975.13;;;22.02;32.36
48606;BME280;8482;54.396;18.590;2023-05-11T17:03:24;101972.56;;;21.84;32.77
48606;BME280;8482;54.396;18.590;2023-05-11T17:05:52;101976.91;;;21.68;32.85
48606;BME280;8482;54.396;18.590;2023-05-11T17:08:17;101977.53;;;21.54;32.76
48606;BME280;8482;54.396;18.590;2023-05-11T17:10:45;101979.50;;;21.35;33.50
48606;BME280;8482;54.396;18.590;2023-05-11T17:13:11;101985.31;;;21.14;34.14
48606;BME280;8482;54.396;18.590;2023-05-11T17:15:36;101982.84;;;20.94;34.73
48606;BME280;8482;54.396;18.590;2023-05-11T17:18:03;101975.94;;;20.74;35.36
48606;BME280;8482;54.396;18.590;2023-05-11T17:20:28;101978.69;;;20.56;35.48
48606;BME280;8482;54.396;18.590;2023-05-11T17:22:55;101985.66;;;20.40;35.45
48606;BME280;8482;54.396;18.590;2023-05-11T17:25:21;101987.19;;;20.25;35.62
48606;BME280;8482;54.396;18.590;2023-05-11T17:27:46;102000.69;;;20.06;35.76
48606;BME280;8482;54.396;18.590;2023-05-11T17:30:13;101992.28;;;19.91;36.12
48606;BME280;8482;54.396;18.590;2023-05-11T17:32:39;101991.22;;;19.74;36.65
48606;BME280;8482;54.396;18.590;2023-05-11T17:35:05;101999.06;;;19.68;37.00
48606;BME280;8482;54.396;18.590;2023-05-11T17:37:32;102004.66;;;19.56;37.25
48606;BME280;8482;54.396;18.590;2023-05-11T17:40:03;101996.78;;;19.45;37.24
48606;BME280;8482;54.396;18.590;2023-05-11T17:42:30;101997.97;;;19.33;37.46
48606;BME280;8482;54.396;18.590;2023-05-11T17:44:56;101995.06;;;19.16;37.77
48606;BME280;8482;54.396;18.590;2023-05-11T17:47:22;102004.03;;;19.07;38.05
48606;BME280;8482;54.396;18.590;2023-05-11T17:49:47;101998.25;;;18.92;37.99
48606;BME280;8482;54.396;18.590;2023-05-11T17:52:14;102007.59;;;18.88;38.61
48606;BME280;8482;54.396;18.590;2023-05-11T17:54:40;102003.94;;;18.79;38.92
48606;BME280;8482;54.396;18.590;2023-05-11T17:57:06;102004.81;;;18.69;39.27
48606;BME280;8482;54.396;18.590;2023-05-11T17:59:32;102004.81;;;18.60;39.56
48606;BME280;8482;54.396;18.590;2023-05-11T18:01:58;102019.41;;;18.47;39.85
48606;BME280;8482;54.396;18.590;2023-05-11T18:04:24;102010.63;;;18.35;40.08
48606;BME280;8482;54.396;18.590;2023-05-11T18:06:50;102019.81;;;18.23;40.55
48606;BME280;8482;54.396;18.590;2023-05-11T18:09:16;102017.72;;;18.17;40.74
48606;BME280;8482;54.396;18.590;2023-05-11T18:11:44;102014.28;;;18.05;41.18
48606;BME280;8482;54.396;18.590;2023-05-11T18:14:10;102015.22;;;17.94;41.10
48606;BME280;8482;54.396;18.590;2023-05-11T18:16:36;102024.38;;;17.82;41.55
48606;BME280;8482;54.396;18.590;2023-05-11T18:19:02;102029.47;;;17.75;41.77
48606;BME280;8482;54.396;18.590;2023-05-11T18:21:29;102024.78;;;17.67;41.79
48606;BME280;8482;54.396;18.590;2023-05-11T18:23:55;102025.59;;;17.58;41.88
48606;BME280;8482;54.396;18.590;2023-05-11T18:26:22;102025.44;;;17.50;41.78
48606;BME280;8482;54.396;18.590;2023-05-11T18:28:49;102023.44;;;17.42;42.21
48606;BME280;8482;54.396;18.590;2023-05-11T18:31:15;102033.84;;;17.35;42.40
48606;BME280;8482;54.396;18.590;2023-05-11T18:33:43;102039.16;;;17.25;42.50
48606;BME280;8482;54.396;18.590;2023-05-11T18:36:09;102027.56;;;17.15;42.57
48606;BME280;8482;54.396;18.590;2023-05-11T18:38:36;102032.88;;;17.05;42.84
48606;BME280;8482;54.396;18.590;2023-05-11T18:41:04;102031.81;;;16.96;43.18
48606;BME280;8482;54.396;18.590;2023-05-11T18:43:30;102041.34;;;16.89;43.45
48606;BME280;8482;54.396;18.590;2023-05-11T18:45:56;102043.81;;;16.81;43.85
48606;BME280;8482;54.396;18.590;2023-05-11T18:48:22;102052.00;;;16.79;44.14
48606;BME280;8482;54.396;18.590;2023-05-11T18:50:55;102051.19;;;16.67;44.18
48606;BME280;8482;54.396;18.590;2023-05-11T18:53:21;102056.22;;;16.61;44.42
48606;BME280;8482;54.396;18.590;2023-05-11T18:55:47;102060.66;;;16.50;44.95
48606;BME280;8482;54.396;18.590;2023-05-11T18:58:12;102061.19;;;16.44;45.17
48606;BME280;8482;54.396;18.590;2023-05-11T19:00:39;102067.16;;;16.36;45.48
48606;BME280;8482;54.396;18.590;2023-05-11T19:03:05;102067.06;;;16.27;45.62
48606;BME280;8482;54.396;18.590;2023-05-11T19:05:32;102065.91;;;16.19;45.76
48606;BME280;8482;54.396;18.590;2023-05-11T19:07:58;102074.41;;;16.13;46.11
48606;BME280;8482;54.396;18.590;2023-05-11T19:10:23;102066.56;;;16.00;45.91
48606;BME280;8482;54.396;18.590;2023-05-11T19:12:49;102079.94;;;16.00;46.19
48606;BME280;8482;54.396;18.590;2023-05-11T19:15:15;102079.56;;;15.93;46.69
48606;BME280;8482;54.396;18.590;2023-05-11T19:17:41;102084.69;;;15.85;46.70
48606;BME280;8482;54.396;18.590;2023-05-11T19:20:07;102074.09;;;15.72;46.66
48606;BME280;8482;54.396;18.590;2023-05-11T19:22:35;102086.59;;;15.72;47.09
48606;BME280;8482;54.396;18.590;2023-05-11T19:25:00;102082.00;;;15.62;47.15
48606;BME280;8482;54.396;18.590;2023-05-11T19:27:26;102082.47;;;15.56;47.45
48606;BME280;8482;54.396;18.590;2023-05-11T19:29:52;102087.22;;;15.53;47.88
48606;BME280;8482;54.396;18.590;2023-05-11T19:32:18;102091.97;;;15.49;47.82
48606;BME280;8482;54.396;18.590;2023-05-11T19:34:44;102088.78;;;15.44;48.09
48606;BME280;8482;54.396;18.590;2023-05-11T19:37:10;102095.47;;;15.38;47.92
48606;BME280;8482;54.396;18.590;2023-05-11T19:39:35;102092.66;;;15.28;48.21
48606;BME280;8482;54.396;18.590;2023-05-11T19:42:01;102098.13;;;15.27;47.71
48606;BME280;8482;54.396;18.590;2023-05-11T19:44:27;102089.13;;;15.16;48.22
48606;BME280;8482;54.396;18.590;2023-05-11T19:46:57;102099.06;;;15.14;48.35
48606;BME280;8482;54.396;18.590;2023-05-11T19:49:23;102096.91;;;15.08;48.48
48606;BME280;8482;54.396;18.590;2023-05-11T19:51:49;102104.28;;;15.05;48.74
48606;BME280;8482;54.396;18.590;2023-05-11T19:54:15;102110.94;;;14.99;48.91
48606;BME280;8482;54.396;18.590;2023-05-11T19:56:41;102102.53;;;14.92;48.94
48606;BME280;8482;54.396;18.590;2023-05-11T19:59:07;102106.53;;;14.86;49.30
48606;BME280;8482;54.396;18.590;2023-05-11T20:01:33;102103.38;;;14.81;49.24
48606;BME280;8482;54.396;18.590;2023-05-11T20:03:59;102102.97;;;14.75;49.07
48606;BME280;8482;54.396;18.590;2023-05-11T20:06:26;102104.25;;;14.69;49.18
48606;BME280;8482;54.396;18.590;2023-05-11T20:08:52;102109.59;;;14.69;49.13